Hovedside
METAR-TAF:

METAR-TAF

Lufthavner :

Wanaham

Lifou, Ny-Caledonia

breddegrad: 20-46S, lengdegrad: 167-14E, høyde over havet: 28 m

METAR: fraværende

Tid: 12:40 (01:40 UTC)

Varsel

Denne rapporten ble laget for 8 timer og 40 minutter siden, klokken 17:00 UTC
Varsel gyldig fra 19. klokken 18 UTC til 20. klokken 18 UTC
Vind 5 kt fra Sør
Sikt 10 km eller mer
Få skyer i en høyde av 4000 ft
Sannsynlighet 30% :
Midlertidig
fra 19. klokken 18 UTC til 19. klokken 20 UTC
Sikt: 0500 m
tåke,

TAF: NWWL 191700Z 1918/2018 18005KT 9999 FEW040 PROB30 TEMPO 1918/1920 0500 FG VV///

Værobservasjoner og værvarsel for over 4000 flyplasser (METAR- og TAF-rapporter).

Tilgjengelige stasjoner er representert av de røde og gule prikkene på kartet.

Hold musepekeren over prikken for å se navnet på stasjonen.

Klikk så for å se værobservasjoner og -varsler.

For å forandre kartet kan du klikke på den grønne knappen med svart kryss for å zoome inn, på den grønne knappen med strek for å zoome ut, eller på de grønne pilene for å se tilstøtende kart.


METAR-TAF: